Flight Track Log - Related Links

Times and Time Zones

All times are in EDT time to prevent confusion due to time zone crossing. See the SKW5564 flight status page for this flight to view local times or setup timezone preferences in your user account.

Time Position Orientation Groundspeed Altitude Reporting Facility
EDT Latitude Longitude Course Direction KTS MPH feet Rate Location/Type
Sun 07:28:01 PM 33.9333 -118.4333 231° Southwest 154 177 1,600  Level Southern California TRACON
Sun 07:28:35 PM 33.9164 -118.4586 231° Southwest 177 204 2,500 1,250 Climbing Los Angeles Center
Sun 07:29:37 PM 33.8689 -118.4858 205° Southwest 193 222 3,600 1,210 Climbing Los Angeles Center
Sun 07:30:39 PM 33.8214 -118.4964 190° South 194 223 5,000 1,463 Climbing Los Angeles Center
Sun 07:31:40 PM 33.7892 -118.4339 122° Southeast 199 229 6,600 1,366 Climbing Los Angeles Center
Sun 07:32:42 PM 33.7908 -118.3656 88° East 201 231 7,800 1,161 Climbing Los Angeles Center
Sun 07:33:44 PM 33.7894 -118.2928 91° East 207 238 9,000 1,113 Climbing Los Angeles Center
Sun 07:34:46 PM 33.7897 -118.2211 90° East 209 241 10,100 1,113 Climbing Los Angeles Center
Sun 07:35:48 PM 33.7883 -118.1489 91° East 213 245 11,300 968 Climbing Los Angeles Center
Sun 07:36:50 PM 33.7839 -118.0772 94° East 214 246 12,100 829 Climbing Los Angeles Center
Sun 07:37:51 PM 33.7808 -118.0064 93° East 214 246 13,000 878 Climbing Los Angeles Center
Sun 07:38:53 PM 33.7747 -117.9356 96° East 214 246 13,900 823 Climbing Los Angeles Center
Sun 07:39:55 PM 33.7683 -117.8642 96° East 215 247 14,700 532 Climbing Los Angeles Center
Sun 07:40:57 PM 33.7619 -117.7722 95° East 227 261 15,000 97 Climbing Los Angeles Center
Sun 07:41:59 PM 33.7547 -117.6869 96° East 247 284 14,900 -48 Descending Los Angeles Center
Sun 07:43:01 PM 33.7472 -117.5972 96° East 263 303 14,900  Level Los Angeles Center
Sun 07:44:03 PM 33.7397 -117.5058 96° East 272 313 14,900  Level Los Angeles Center
Sun 07:45:04 PM 33.7339 -117.4156 94° East 273 314 14,900  Level Los Angeles Center
Sun 07:46:06 PM 33.7267 -117.3233 95° East 276 318 14,900  Level Los Angeles Center
Sun 07:47:08 PM 33.7203 -117.2333 95° East 274 315 14,900  Level Los Angeles Center
Sun 07:48:10 PM 33.7100 -117.1236 96° East 275 316 14,900  Level Los Angeles Center
Sun 07:49:12 PM 33.7042 -117.0317 94° East 275 316 14,900  Level Los Angeles Center
Sun 07:50:14 PM 33.6961 -116.9417 96° East 274 315 14,900 48 Level Los Angeles Center
Sun 07:51:16 PM 33.6883 -116.8511 96° East 273 314 15,000 -290 Climbing Los Angeles Center
Sun 07:52:18 PM 33.6811 -116.7597 95° East 273 314 14,300 -1,016 Descending Los Angeles Center
Sun 07:53:20 PM 33.6719 -116.6697 97° East 273 314 12,900 -1,951 Descending Los Angeles Center
Sun 07:54:21 PM 33.7028 -116.5833 67° East 245 282 10,300 -2,634 Descending Los Angeles Center
Sun 07:55:23 PM 33.7350 -116.5200 59° Northeast 229 264 7,500 -1,597 Descending Los Angeles Center
Sun 07:56:25 PM 33.7678 -116.4597 57° Northeast 228 262 7,000 -2,000 Descending Los Angeles Center
Sun 07:58:05 PM 33.8333 -116.4833 343° North 156 180 2,100 -1,950 Descending Southern California TRACON
Sun 07:59:05 PM 33.8667 -116.5167 320° Northwest 154 177 1,800 -655 Descending Southern California TRACON
Sun 08:00:04 PM 33.8500 -116.5167 180° South 146 168 800 -1,017 Descending Southern California TRACON
Sun 08:02:00 PM 33.8297 -116.5067 165° South  Level Estimated

Login

Don't have an account? Register now (free) for customized features, flight alerts, and more!